Time;durP1;ratioP1;P1;durP2;ratioP2;P2;SDS_P1;SDS_P2;PMS_P1;PMS_P2;Temp;Humidity;BMP_temperature;BMP_pressure;BME280_temperature;BME280_humidity;BME280_pressure;Samples;Min_cycle;Max_cycle;Signal;HPM_P1;HPM_P2
2022/09/08 00:01:13;;;;;;;17.40;8.70;;;;;;;5.03;73.80;99116.95;104660;1274;61968;-24
2022/09/08 00:03:40;;;;;;;13.10;7.00;;;;;;;4.86;73.95;99118.59;104612;1275;76643;-24
2022/09/08 00:06:11;;;;;;;10.00;4.30;;;;;;;4.86;75.68;99116.73;104677;1274;76005;-24
2022/09/08 00:08:39;;;;;;;13.30;6.70;;;;;;;5.56;74.21;99113.02;104648;1274;75320;-24
2022/09/08 00:11:07;;;;;;;16.30;8.40;;;;;;;6.29;71.01;99112.11;104844;1274;63054;-24
2022/09/08 00:13:35;;;;;;;15.00;7.70;;;;;;;6.30;70.08;99114.27;104731;1274;63006;-24
2022/09/08 00:16:04;;;;;;;19.20;7.50;;;;;;;6.04;69.99;99116.56;104719;1275;74570;-24
2022/09/08 00:18:35;;;;;;;14.40;7.80;;;;;;;5.73;70.49;99120.97;104683;1274;76416;-24
2022/09/08 00:21:02;;;;;;;19.30;7.70;;;;;;;5.44;71.73;99124.77;104833;1273;75465;-24
2022/09/08 00:23:29;;;;;;;14.70;7.40;;;;;;;5.00;73.28;99123.17;104797;1274;61141;-24
2022/09/08 00:25:56;;;;;;;14.20;7.00;;;;;;;4.64;74.32;99117.27;104748;1274;63291;-24
2022/09/08 00:28:23;;;;;;;11.90;6.00;;;;;;;4.43;75.38;99116.16;104691;1274;76683;-24
2022/09/08 00:30:54;;;;;;;10.40;4.70;;;;;;;4.45;77.85;99113.31;104875;1274;77112;-24
2022/09/08 00:33:22;;;;;;;14.50;6.20;;;;;;;5.14;75.84;99110.83;104765;1274;76064;-25
2022/09/08 00:35:51;;;;;;;8.70;4.60;;;;;;;5.85;72.13;99107.50;104730;1274;62117;-25
2022/09/08 00:38:21;;;;;;;10.10;4.40;;;;;;;5.94;71.30;99110.26;104840;1274;63113;-24
2022/09/08 00:40:49;;;;;;;9.30;5.10;;;;;;;6.06;70.93;99113.19;104704;1274;74404;-24
2022/09/08 00:43:37;;;;;;;11.20;6.90;;;;;;;6.05;70.93;99111.86;104891;1274;77010;-24
2022/09/08 00:46:14;;;;;;;11.30;5.40;;;;;;;5.88;71.36;99113.02;104743;1274;75333;-24
2022/09/08 00:48:47;;;;;;;9.20;5.00;;;;;;;5.75;70.92;99108.98;104802;1274;62203;-24
2022/09/08 00:51:16;;;;;;;10.00;5.70;;;;;;;5.62;70.79;99106.34;104706;1274;63308;-24
2022/09/08 00:53:43;;;;;;;11.40;5.20;;;;;;;5.43;71.17;99108.27;104689;1275;76563;-24
2022/09/08 00:56:10;;;;;;;14.00;6.50;;;;;;;5.10;71.59;99113.80;104807;1275;76876;-24
2022/09/08 00:58:37;;;;;;;7.20;3.90;;;;;;;4.88;74.01;99114.38;104866;1274;75301;-24
2022/09/08 01:01:05;;;;;;;12.40;4.20;;;;;;;5.37;74.01;99106.21;104600;1274;61791;-24
2022/09/08 01:03:32;;;;;;;8.50;5.00;;;;;;;6.11;70.98;99101.50;104502;1274;61924;-24
2022/09/08 01:06:09;;;;;;;9.30;5.60;;;;;;;6.27;69.84;99096.88;104637;1274;76249;-24
2022/09/08 01:14:57;;;;;;;10.60;5.00;;;;;;;5.17;72.94;99102.27;104626;1274;63076;-24
2022/09/08 01:17:27;;;;;;;11.70;5.80;;;;;;;4.88;74.95;99099.38;104602;1274;63070;-24
2022/09/08 01:19:54;;;;;;;8.70;4.10;;;;;;;5.02;74.72;99093.28;104688;1274;76262;-24
2022/09/08 01:22:43;;;;;;;11.80;4.80;;;;;;;5.66;72.53;99088.84;104836;1274;77065;-24
2022/09/08 01:25:35;;;;;;;10.10;4.80;;;;;;;6.32;70.09;99085.71;104721;1274;75405;-24
2022/09/08 01:28:07;;;;;;;9.50;4.10;;;;;;;6.43;69.10;99084.83;104792;1274;61813;-24
2022/09/08 01:30:34;;;;;;;9.70;4.90;;;;;;;6.21;69.17;99086.02;104593;1275;61089;-24
2022/09/08 01:33:05;;;;;;;10.80;4.90;;;;;;;6.00;69.53;99087.33;104712;1275;76716;-24
2022/09/08 01:35:34;;;;;;;9.90;5.00;;;;;;;5.77;70.05;99085.94;104702;1274;77185;-23
2022/09/08 01:38:01;;;;;;;11.00;5.10;;;;;;;5.51;71.99;99086.48;104708;1275;75559;-24
2022/09/08 01:40:28;;;;;;;9.40;4.80;;;;;;;5.32;71.69;99083.30;104676;1274;62153;-24
2022/09/08 01:42:55;;;;;;;10.20;5.00;;;;;;;5.16;71.97;99082.70;104720;1274;63174;-23
2022/09/08 01:45:23;;;;;;;11.30;4.10;;;;;;;4.89;74.39;99082.80;104723;1272;76511;-26
2022/09/08 01:47:50;;;;;;;9.30;3.90;;;;;;;5.30;74.19;99086.31;104896;1274;75049;-23
2022/09/08 01:50:17;;;;;;;9.70;4.10;;;;;;;6.01;71.47;99082.80;104745;1275;74181;-23
2022/09/08 01:52:44;;;;;;;7.90;4.30;;;;;;;6.11;69.88;99084.78;104811;1274;61994;-23
2022/09/08 01:55:11;;;;;;;10.00;5.00;;;;;;;5.81;69.57;99087.24;104665;1274;61867;-23
2022/09/08 01:57:38;;;;;;;8.40;4.70;;;;;;;5.54;71.07;99085.26;104606;1274;76550;-23
2022/09/08 02:00:06;;;;;;;7.70;4.90;;;;;;;5.31;70.84;99089.71;104676;1274;76766;-23
2022/09/08 02:02:33;;;;;;;10.70;5.40;;;;;;;4.92;72.18;99097.96;104592;1274;75645;-23
2022/09/08 02:05:01;;;;;;;7.50;4.10;;;;;;;4.53;73.78;99095.48;104736;1274;61127;-23
2022/09/08 02:07:27;;;;;;;8.70;4.10;;;;;;;4.30;74.62;99092.13;104647;1274;62791;-23
2022/09/08 02:09:54;;;;;;;8.50;3.60;;;;;;;4.15;75.46;99089.13;104802;1274;77026;-23
2022/09/08 02:12:21;;;;;;;6.80;3.60;;;;;;;4.66;74.50;99096.37;104781;1274;75043;-23
2022/09/08 02:14:48;;;;;;;7.00;3.90;;;;;;;5.22;72.58;99094.93;104856;1274;75474;-23
2022/09/08 02:17:15;;;;;;;6.30;3.80;;;;;;;5.28;71.59;99092.48;104863;1274;62985;-23
2022/09/08 02:19:42;;;;;;;7.40;4.80;;;;;;;5.13;71.62;99095.09;104725;1275;61766;-23
2022/09/08 02:22:09;;;;;;;6.70;3.60;;;;;;;4.90;72.03;99091.17;104848;1274;76629;-23
2022/09/08 02:24:37;;;;;;;7.50;3.90;;;;;;;4.76;72.18;99089.94;104924;1274;76933;-23
2022/09/08 02:27:04;;;;;;;6.30;4.00;;;;;;;4.64;72.75;99091.11;104611;1274;73407;-23
2022/09/08 02:29:31;;;;;;;8.00;4.00;;;;;;;4.50;72.86;99088.42;104719;1274;62021;-23
2022/09/08 02:31:58;;;;;;;7.00;4.00;;;;;;;4.26;73.02;99093.70;104637;1275;61029;-24
2022/09/08 02:34:25;;;;;;;4.60;2.90;;;;;;;3.98;74.29;99095.90;104594;1274;74154;-24
2022/09/08 02:36:52;;;;;;;7.00;3.50;;;;;;;4.25;74.93;99095.34;104602;1274;77584;-23
2022/09/08 02:39:20;;;;;;;8.50;3.40;;;;;;;4.85;73.79;99095.96;104597;1274;75319;-23
2022/09/08 02:41:47;;;;;;;6.60;3.80;;;;;;;5.03;72.56;99093.23;104636;1274;62014;-23
2022/09/08 02:44:14;;;;;;;8.30;4.10;;;;;;;4.93;72.26;99098.09;104705;1274;62878;-23
2022/09/08 02:46:41;;;;;;;7.80;4.40;;;;;;;4.74;72.28;99095.92;104852;1274;75559;-24
2022/09/08 02:49:10;;;;;;;6.40;3.80;;;;;;;4.55;72.77;99094.20;104845;1272;76003;-23
2022/09/08 02:51:37;;;;;;;9.80;4.90;;;;;;;4.35;72.97;99098.07;104880;1274;73057;-23
2022/09/08 02:54:04;;;;;;;11.30;4.60;;;;;;;4.13;74.04;99096.65;104815;1274;61170;-23
2022/09/08 02:56:31;;;;;;;6.90;3.70;;;;;;;3.93;76.17;99098.39;104869;1274;63087;-23
2022/09/08 02:59:00;;;;;;;22.60;8.60;;;;;;;3.86;76.66;99096.05;104836;1274;76713;-23
2022/09/08 03:01:27;;;;;;;21.50;8.00;;;;;;;4.41;75.49;99096.82;104664;1274;77045;-24
2022/09/08 03:03:54;;;;;;;23.10;10.80;;;;;;;5.10;72.43;99096.41;104574;1274;75412;-23
2022/09/08 03:06:21;;;;;;;13.50;6.30;;;;;;;5.25;71.68;99095.58;104770;1274;61784;-23
2022/09/08 03:08:49;;;;;;;13.00;6.80;;;;;;;5.17;71.25;99095.52;104845;1274;61942;-23
2022/09/08 03:11:16;;;;;;;17.70;8.80;;;;;;;4.99;71.44;99093.77;104660;1274;75668;-23
2022/09/08 03:13:43;;;;;;;24.40;10.50;;;;;;;4.83;71.80;99093.47;104661;1274;76224;-23
2022/09/08 03:16:10;;;;;;;10.80;5.30;;;;;;;4.67;72.12;99094.05;104780;1274;75434;-23
2022/09/08 03:18:37;;;;;;;6.10;4.20;;;;;;;4.48;72.63;99097.38;104829;1274;61253;-23
2022/09/08 03:21:07;;;;;;;6.70;3.80;;;;;;;4.19;73.57;99096.36;104890;1271;63164;-24
2022/09/08 03:23:35;;;;;;;6.90;3.10;;;;;;;3.94;74.35;99097.14;104823;1271;76412;-24
2022/09/08 03:26:03;;;;;;;5.90;3.20;;;;;;;4.38;74.89;99099.78;105009;1271;75859;-24
2022/09/08 03:28:30;;;;;;;9.20;3.90;;;;;;;5.05;73.43;99093.30;105054;1271;75313;-26
2022/09/08 03:30:57;;;;;;;4.90;3.20;;;;;;;5.25;72.32;99097.13;105172;1271;62070;-25
2022/09/08 03:33:25;;;;;;;10.10;4.10;;;;;;;5.15;72.07;99100.59;104977;1271;62704;-24
2022/09/08 03:35:52;;;;;;;5.80;3.50;;;;;;;4.96;71.96;99102.55;104983;1271;76613;-24
2022/09/08 03:38:19;;;;;;;23.40;4.30;;;;;;;4.69;72.38;99102.03;105105;1271;76987;-24
2022/09/08 03:40:45;;;;;;;11.00;3.80;;;;;;;4.50;73.17;99101.69;104987;1271;76283;-25
2022/09/08 03:43:13;;;;;;;8.40;4.40;;;;;;;4.32;75.01;99104.41;105013;1271;62013;-25
2022/09/08 03:45:42;;;;;;;10.70;4.60;;;;;;;4.15;75.45;99104.46;104891;1271;61716;-25
2022/09/08 03:48:09;;;;;;;7.10;2.80;;;;;;;4.07;75.39;99104.89;105029;1271;74475;-25
2022/09/08 03:50:36;;;;;;;6.80;3.30;;;;;;;4.61;74.92;99107.77;105030;1271;77012;-25
2022/09/08 03:53:03;;;;;;;8.40;4.00;;;;;;;5.34;73.15;99109.52;104771;1271;73427;-25
2022/09/08 03:55:31;;;;;;;9.90;3.90;;;;;;;5.46;71.83;99109.30;104721;1271;63097;-25
2022/09/08 03:57:59;;;;;;;11.40;3.90;;;;;;;5.27;71.93;99114.57;104915;1271;62922;-24
2022/09/08 04:00:26;;;;;;;9.90;4.20;;;;;;;5.01;72.39;99116.92;104816;1271;75154;-25
2022/09/08 04:02:54;;;;;;;7.20;4.10;;;;;;;4.78;73.05;99114.41;105140;1271;76994;-25
2022/09/08 04:05:21;;;;;;;10.90;3.80;;;;;;;4.62;73.56;99114.95;104946;1270;74192;-25
2022/09/08 04:07:48;;;;;;;8.70;4.20;;;;;;;4.59;74.32;99116.99;105137;1271;62044;-25
2022/09/08 04:10:15;;;;;;;7.60;4.30;;;;;;;4.61;75.34;99120.52;105128;1268;63074;-25
2022/09/08 04:12:45;;;;;;;7.00;3.00;;;;;;;4.71;74.94;99124.44;105124;1271;74792;-25
2022/09/08 04:15:12;;;;;;;8.50;3.20;;;;;;;5.43;73.88;99127.58;104750;1271;76831;-24
2022/09/08 04:17:40;;;;;;;8.70;3.60;;;;;;;6.31;71.58;99126.61;105161;1271;75360;-24
2022/09/08 04:20:07;;;;;;;7.10;3.90;;;;;;;6.71;70.66;99127.06;105023;1271;61956;-25
2022/09/08 04:22:34;;;;;;;12.00;4.60;;;;;;;6.98;69.71;99131.37;104853;1271;63057;-25
2022/09/08 04:25:02;;;;;;;7.30;4.30;;;;;;;7.17;68.51;99130.30;104973;1269;76778;-25
2022/09/08 04:27:29;;;;;;;8.40;4.70;;;;;;;7.27;68.35;99127.91;105108;1271;74897;-25
2022/09/08 04:29:56;;;;;;;8.60;4.50;;;;;;;7.40;68.28;99131.20;104931;1271;75436;-25
2022/09/08 04:32:24;;;;;;;9.00;4.90;;;;;;;7.31;67.70;99131.81;104926;1271;63084;-25
2022/09/08 04:34:51;;;;;;;9.30;5.00;;;;;;;7.29;67.56;99131.06;105059;1271;61362;-25
2022/09/08 04:37:18;;;;;;;10.50;4.90;;;;;;;7.26;66.83;99126.77;105067;1271;76624;-25
2022/09/08 04:39:48;;;;;;;10.40;5.40;;;;;;;7.16;66.97;99127.94;105026;1271;76764;-25
2022/09/08 04:42:15;;;;;;;12.20;5.70;;;;;;;7.23;67.25;99125.46;105124;1272;73531;-25
2022/09/08 04:44:42;;;;;;;18.00;6.20;;;;;;;7.41;66.47;99121.67;105141;1270;61410;-25
2022/09/08 04:47:09;;;;;;;13.10;6.10;;;;;;;7.62;66.88;99122.85;105119;1270;63186;-25
2022/09/08 04:49:36;;;;;;;12.40;5.00;;;;;;;7.86;67.24;99132.27;105119;1271;76632;-25
2022/09/08 04:52:03;;;;;;;10.60;4.70;;;;;;;8.38;66.62;99131.74;105118;1271;76977;-25
2022/09/08 04:54:30;;;;;;;17.20;4.90;;;;;;;9.39;65.20;99133.54;105019;1271;74220;-25
2022/09/08 04:56:57;;;;;;;6.60;4.00;;;;;;;9.90;64.44;99133.65;105090;1271;62958;-25
2022/09/08 04:59:27;;;;;;;13.90;5.60;;;;;;;9.99;63.07;99134.56;105007;1269;61850;-25
2022/09/08 05:01:55;;;;;;;12.90;6.30;;;;;;;9.83;62.04;99137.65;104783;1271;76559;-25
2022/09/08 05:04:22;;;;;;;12.50;6.90;;;;;;;9.71;60.84;99135.66;104963;1271;76711;-25
2022/09/08 05:06:49;;;;;;;20.80;9.40;;;;;;;9.49;61.41;99133.50;105095;1271;74465;-25
2022/09/08 05:09:16;;;;;;;23.30;12.30;;;;;;;9.46;62.12;99136.27;104971;1271;63506;-24
2022/09/08 05:11:43;;;;;;;25.60;10.20;;;;;;;9.34;62.72;99142.36;104890;1271;63475;-25
2022/09/08 05:14:10;;;;;;;24.00;9.30;;;;;;;9.32;62.72;99140.75;105096;1271;76926;-24
2022/09/08 05:16:37;;;;;;;31.80;13.30;;;;;;;9.46;63.03;99139.94;105110;1271;77499;-25
2022/09/08 05:19:05;;;;;;;25.80;11.90;;;;;;;9.60;62.67;99143.20;104932;1271;73140;-23
2022/09/08 05:21:33;;;;;;;20.80;9.20;;;;;;;9.45;60.94;99142.83;105002;1271;61824;-23
2022/09/08 05:24:01;;;;;;;17.50;9.60;;;;;;;9.49;62.24;99142.63;105070;1271;61989;-23
2022/09/08 05:26:28;;;;;;;36.10;16.10;;;;;;;9.42;61.46;99146.99;104841;1271;76538;-23
2022/09/08 05:28:55;;;;;;;44.70;19.20;;;;;;;9.61;62.28;99151.83;104895;1271;76903;-23
2022/09/08 05:31:24;;;;;;;29.90;13.50;;;;;;;9.80;62.18;99151.61;105057;1271;75478;-23
2022/09/08 05:33:52;;;;;;;28.60;10.00;;;;;;;10.07;61.42;99152.31;105090;1271;62915;-23
2022/09/08 05:36:21;;;;;;;29.10;9.70;;;;;;;10.39;61.42;99149.86;105085;1271;61858;-24
2022/09/08 05:38:48;;;;;;;32.60;13.80;;;;;;;10.62;59.30;99155.66;104898;1271;75408;-23
2022/09/08 05:41:16;;;;;;;25.90;10.60;;;;;;;10.85;59.90;99152.60;104954;1270;76979;-24
2022/09/08 05:43:43;;;;;;;20.70;9.60;;;;;;;11.10;59.24;99150.44;104813;1271;75355;-24
2022/09/08 05:46:10;;;;;;;19.70;9.50;;;;;;;11.28;58.31;99153.71;104736;1271;63023;-24
2022/09/08 05:48:44;;;;;;;37.80;14.90;;;;;;;11.50;57.83;99150.70;104964;1271;62018;-24
2022/09/08 05:51:11;;;;;;;22.70;10.80;;;;;;;11.76;57.38;99148.85;105103;1271;76600;-24
2022/09/08 05:53:38;;;;;;;30.90;12.90;;;;;;;12.01;57.22;99151.98;105047;1272;75857;-24
2022/09/08 05:56:06;;;;;;;29.40;12.80;;;;;;;12.01;55.01;99150.06;105108;1271;75309;-24
2022/09/08 05:58:33;;;;;;;21.30;9.00;;;;;;;12.16;55.81;99147.73;104926;1271;62856;-24
2022/09/08 06:01:06;;;;;;;22.20;11.90;;;;;;;12.00;54.61;99145.75;105196;1270;61945;-24
2022/09/08 06:03:33;;;;;;;19.10;9.10;;;;;;;11.87;56.20;99145.10;105062;1271;76648;-23
2022/09/08 06:06:05;;;;;;;27.40;12.30;;;;;;;11.83;55.16;99142.51;105129;1271;75963;-24
2022/09/08 06:08:33;;;;;;;24.90;11.90;;;;;;;11.77;55.88;99146.19;104690;1271;75283;-24
2022/09/08 06:10:59;;;;;;;32.40;15.70;;;;;;;11.84;55.84;99147.43;104904;1271;62033;-24
2022/09/08 06:13:27;;;;;;;27.20;12.60;;;;;;;11.69;56.02;99144.86;104854;1271;63035;-24
2022/09/08 06:16:00;;;;;;;35.00;15.70;;;;;;;11.93;56.19;99146.52;104770;1271;76482;-25
2022/09/08 06:18:27;;;;;;;32.80;14.40;;;;;;;12.18;56.37;99151.23;104681;1272;74957;-23
2022/09/08 06:20:54;;;;;;;28.90;13.10;;;;;;;12.26;54.98;99151.75;104838;1271;74361;-24
2022/09/08 06:23:21;;;;;;;18.60;7.10;;;;;;;12.36;55.01;99153.00;104820;1271;62881;-25
2022/09/08 06:25:48;;;;;;;15.80;6.70;;;;;;;12.48;55.44;99152.43;104824;1272;62750;-24
2022/09/08 06:28:25;;;;;;;11.40;5.50;;;;;;;12.56;55.15;99148.60;104873;1271;75539;-23
2022/09/08 06:30:52;;;;;;;12.60;5.60;;;;;;;12.58;54.59;99152.41;104742;1272;76941;-24
2022/09/08 06:33:39;;;;;;;12.90;5.90;;;;;;;12.56;53.29;99154.69;105019;1271;75801;-23
2022/09/08 06:36:21;;;;;;;9.90;4.80;;;;;;;12.65;53.03;99154.27;105030;1271;62005;-24
2022/09/08 06:38:53;;;;;;;7.30;4.50;;;;;;;12.81;53.32;99153.78;104729;1272;62667;-24
2022/09/08 06:41:22;;;;;;;10.70;4.00;;;;;;;12.90;53.08;99151.89;104888;1271;77159;-25
2022/09/08 06:43:51;;;;;;;8.80;4.10;;;;;;;13.07;52.04;99150.77;104999;1271;76860;-23
2022/09/08 06:46:18;;;;;;;7.50;4.40;;;;;;;13.19;52.38;99153.35;104982;1271;75354;-24
2022/09/08 06:48:45;;;;;;;11.40;5.00;;;;;;;13.34;52.08;99156.33;104869;1271;61118;-23
2022/09/08 06:51:24;;;;;;;6.20;4.10;;;;;;;13.54;50.33;99158.09;104844;1272;61780;-24
2022/09/08 06:54:08;;;;;;;6.60;3.90;;;;;;;13.78;48.55;99161.63;105081;1271;76547;-24
2022/09/08 06:56:41;;;;;;;;;;;;;;;13.98;46.60;99166.91;105036;1271;77137;-24
2022/09/08 06:59:59;;;;;;;5.90;3.50;;;;;;;14.12;46.03;99169.92;104873;1271;73033;-24
2022/09/08 07:03:08;;;;;;;4.90;3.30;;;;;;;14.41;44.47;99166.35;102301;1271;61719;-24
2022/09/08 07:05:41;;;;;;;5.40;3.50;;;;;;;14.34;43.49;99171.16;105016;1271;76560;-24
2022/09/08 07:08:17;;;;;;;10.40;6.50;;;;;;;14.63;45.24;99175.82;104954;1271;75521;-24
2022/09/08 07:10:56;;;;;;;10.70;4.80;;;;;;;14.83;43.85;99175.98;104863;1271;75398;-24
2022/09/08 07:13:26;;;;;;;16.80;4.30;;;;;;;15.16;43.76;99178.02;104848;1271;62060;-25
2022/09/08 07:16:12;;;;;;;10.10;4.20;;;;;;;15.43;43.58;99179.99;104860;1271;62106;-24
2022/09/08 07:19:02;;;;;;;9.10;4.10;;;;;;;15.54;42.95;99184.75;105025;1271;76811;-24
2022/09/08 07:21:38;;;;;;;10.20;3.70;;;;;;;15.63;42.90;99185.08;105151;1271;74987;-24
2022/09/08 07:24:10;;;;;;;7.60;3.30;;;;;;;15.86;43.50;99183.54;105119;1271;75358;-24
2022/09/08 07:26:39;;;;;;;8.80;4.20;;;;;;;15.82;42.97;99188.31;105055;1272;61887;-24
2022/09/08 07:29:12;;;;;;;9.90;4.30;;;;;;;16.04;43.74;99187.23;105145;1271;61877;-24
2022/09/08 07:31:40;;;;;;;11.40;5.00;;;;;;;16.17;41.84;99186.86;104997;1274;76545;-22
2022/09/08 07:34:11;;;;;;;6.50;3.80;;;;;;;16.15;41.65;99188.48;105149;1271;76724;-23
2022/09/08 07:36:42;;;;;;;8.90;4.50;;;;;;;16.18;41.80;99185.36;104914;1270;75251;-23
2022/09/08 07:39:19;;;;;;;8.50;4.70;;;;;;;16.21;40.96;99186.31;104865;1272;62015;-23
2022/09/08 07:41:52;;;;;;;19.80;8.50;;;;;;;16.19;40.99;99187.92;104883;1271;61844;-23
2022/09/08 07:44:19;;;;;;;12.30;5.90;;;;;;;16.14;41.78;99187.80;105140;1271;74496;-24
2022/09/08 07:46:58;;;;;;;9.40;4.60;;;;;;;16.40;40.82;99183.67;104889;1271;75869;-24
2022/09/08 07:49:31;;;;;;;9.70;3.30;;;;;;;16.49;40.75;99182.11;104717;1271;75549;-24
2022/09/08 07:52:26;;;;;;;9.60;3.80;;;;;;;16.58;40.75;99185.88;104888;1271;62009;-24
2022/09/08 07:55:31;;;;;;;10.30;5.80;;;;;;;16.50;40.63;99185.78;104977;1271;62950;-24
2022/09/08 07:58:19;;;;;;;15.70;5.80;;;;;;;16.60;39.97;99187.22;104710;1271;76599;-24
2022/09/08 08:00:55;;;;;;;5.70;3.10;;;;;;;16.88;39.43;99181.82;104777;1270;76814;-24
2022/09/08 08:03:50;;;;;;;28.20;11.10;;;;;;;17.09;38.42;99185.61;104939;1271;73146;-24
2022/09/08 08:06:40;;;;;;;11.60;4.50;;;;;;;17.27;38.22;99184.76;105077;1271;61899;-24
2022/09/08 08:09:23;;;;;;;7.70;3.10;;;;;;;17.51;36.90;99185.36;104768;1271;63037;-24
2022/09/08 08:12:00;;;;;;;5.60;3.60;;;;;;;17.82;36.60;99191.64;104798;1271;76579;-24
2022/09/08 08:14:45;;;;;;;4.50;2.30;;;;;;;17.36;35.29;99194.48;104929;1271;77121;-24
2022/09/08 08:17:12;;;;;;;13.90;6.50;;;;;;;17.57;34.26;99197.71;104926;1271;75718;-24
2022/09/08 08:20:12;;;;;;;15.90;5.90;;;;;;;17.94;35.02;99194.02;105097;1271;62694;-24
2022/09/08 08:23:10;;;;;;;9.60;3.20;;;;;;;18.32;34.47;99191.46;105181;1271;63004;-24
2022/09/08 08:25:59;;;;;;;7.70;2.60;;;;;;;18.69;33.98;99185.55;105157;1271;75410;-24
2022/09/08 08:28:29;;;;;;;5.60;2.50;;;;;;;19.18;33.89;99183.38;105013;1271;76953;-25
2022/09/08 08:31:03;;;;;;;4.20;2.20;;;;;;;19.39;32.85;99179.98;104951;1271;74027;-24
2022/09/08 08:33:45;;;;;;;5.00;3.10;;;;;;;19.55;33.02;99175.95;104939;1271;63496;-24
2022/09/08 08:36:17;;;;;;;26.90;6.50;;;;;;;18.88;32.76;99183.95;104876;1271;62926;-23
2022/09/08 08:38:56;;;;;;;7.70;3.30;;;;;;;18.65;33.33;99178.78;105125;1271;76584;-24
2022/09/08 08:41:33;;;;;;;7.90;2.60;;;;;;;18.86;33.26;99178.23;104810;1271;77075;-24
2022/09/08 08:44:46;;;;;;;10.80;4.90;;;;;;;18.65;33.49;99181.30;105080;1271;74332;-24
2022/09/08 08:47:36;;;;;;;10.60;4.30;;;;;;;18.59;33.11;99177.27;104781;1272;61886;-24
2022/09/08 08:50:23;;;;;;;8.80;2.70;;;;;;;18.91;34.62;99173.31;104869;1271;63171;-24
2022/09/08 08:53:02;;;;;;;8.30;2.90;;;;;;;19.34;33.48;99170.52;104996;1271;76565;-25
2022/09/08 08:55:50;;;;;;;8.10;3.10;;;;;;;19.42;33.56;99169.38;104779;1271;76925;-25
2022/09/08 08:58:23;;;;;;;5.20;2.60;;;;;;;19.51;33.74;99162.39;104729;1274;75355;-25
2022/09/08 09:04:54;;;;;;;7.70;2.30;;;;;;;19.91;32.26;99170.33;105093;1271;63121;-25
2022/09/08 09:07:40;;;;;;;23.70;4.70;;;;;;;20.19;32.15;99166.67;105113;1271;75568;-25
2022/09/08 09:10:38;;;;;;;12.60;4.30;;;;;;;19.76;31.74;99168.75;105087;1271;76051;-24
2022/09/08 09:13:27;;;;;;;5.20;2.70;;;;;;;20.15;31.09;99172.47;105134;1271;75750;-23
2022/09/08 09:16:00;;;;;;;8.00;2.60;;;;;;;20.94;31.29;99169.66;105091;1271;62159;-23
2022/09/08 09:19:01;;;;;;;4.10;2.40;;;;;;;21.56;30.30;99167.70;104927;1271;61317;-23
2022/09/08 09:21:54;;;;;;;13.70;3.10;;;;;;;22.04;28.89;99161.46;104945;1271;76566;-23
2022/09/08 09:24:40;;;;;;;6.70;3.10;;;;;;;22.28;28.13;99154.38;105087;1271;76393;-23
2022/09/08 09:27:41;;;;;;;7.80;4.30;;;;;;;22.74;28.02;99154.27;105083;1271;75393;-25
2022/09/08 09:30:12;;;;;;;14.70;7.10;;;;;;;21.70;27.66;99154.95;105060;1271;61928;-23
2022/09/08 09:32:39;;;;;;;8.50;3.60;;;;;;;21.62;27.95;99157.92;105108;1271;63163;-23
2022/09/08 09:35:13;;;;;;;11.20;5.90;;;;;;;20.86;27.74;99157.23;105094;1271;76671;-23
2022/09/08 09:38:13;;;;;;;8.90;3.10;;;;;;;21.21;28.89;99156.78;105158;1271;76451;-23
2022/09/08 09:41:06;;;;;;;8.30;2.40;;;;;;;22.42;27.44;99158.02;105149;1271;75478;-23
2022/09/08 09:43:45;;;;;;;6.60;4.20;;;;;;;21.46;27.08;99156.19;104897;1271;63096;-23
2022/09/08 09:46:28;;;;;;;4.20;2.40;;;;;;;21.89;27.68;99150.27;105102;1272;63382;-23
2022/09/08 09:49:25;;;;;;;5.70;2.90;;;;;;;22.89;26.27;99149.29;105113;1272;75382;-23
2022/09/08 09:52:14;;;;;;;6.40;2.40;;;;;;;23.47;24.74;99141.27;105157;1269;77190;-23
2022/09/08 09:54:51;;;;;;;7.40;2.60;;;;;;;23.54;24.21;99141.41;105129;1271;74368;-23
2022/09/08 09:57:43;;;;;;;2.90;2.00;;;;;;;24.19;23.54;99146.64;105055;1271;63119;-23
2022/09/08 10:00:18;;;;;;;4.40;2.20;;;;;;;24.32;23.27;99146.28;104963;1271;61701;-23
2022/09/08 10:03:04;;;;;;;3.70;2.20;;;;;;;24.51;23.95;99146.10;104971;1272;76690;-23
2022/09/08 10:05:44;;;;;;;10.70;5.10;;;;;;;24.18;22.24;99144.20;105124;1271;75912;-24
2022/09/08 10:08:14;;;;;;;7.70;2.80;;;;;;;23.96;22.55;99146.80;105058;1271;75672;-24
2022/09/08 10:10:41;;;;;;;5.10;2.30;;;;;;;24.26;23.92;99145.52;105112;1271;63076;-24
2022/09/08 10:13:19;;;;;;;6.50;2.30;;;;;;;24.61;22.58;99141.26;105002;1271;63222;-24
2022/09/08 10:16:18;;;;;;;3.90;2.50;;;;;;;25.10;22.50;99144.21;105118;1272;76493;-24
2022/09/08 10:19:01;;;;;;;6.10;2.00;;;;;;;25.35;22.08;99141.05;104724;1272;77011;-24
2022/09/08 10:21:56;;;;;;;6.40;2.10;;;;;;;25.14;21.96;99141.73;104890;1271;75421;-24
2022/09/08 10:24:32;;;;;;;3.80;2.00;;;;;;;25.44;21.82;99141.92;105086;1271;62754;-24
2022/09/08 10:27:27;;;;;;;6.20;2.30;;;;;;;25.37;21.67;99141.09;105105;1271;62897;-24
2022/09/08 10:30:22;;;;;;;3.40;2.00;;;;;;;25.56;21.79;99140.56;105104;1271;76034;-24
2022/09/08 10:33:05;;;;;;;2.90;1.80;;;;;;;25.56;20.74;99142.41;105098;1274;76122;-23
2022/09/08 10:35:39;;;;;;;5.20;1.60;;;;;;;25.55;20.32;99143.30;105011;1271;74465;-23
2022/09/08 10:38:37;;;;;;;2.70;1.70;;;;;;;25.76;21.07;99145.14;104779;1271;62844;-23
2022/09/08 10:41:26;;;;;;;5.40;2.00;;;;;;;26.33;19.60;99145.23;104956;1271;62987;-23
2022/09/08 10:44:15;;;;;;;3.70;2.30;;;;;;;26.17;20.59;99143.33;105138;1271;77013;-23
2022/09/08 10:47:32;;;;;;;15.40;2.40;;;;;;;25.83;20.63;99141.02;105118;1271;77208;-23
2022/09/08 10:50:19;;;;;;;6.90;2.20;;;;;;;25.49;19.92;99136.23;104929;1271;75403;-23
2022/09/08 10:53:12;;;;;;;2.70;1.70;;;;;;;26.03;21.83;99135.98;105134;1271;61883;-23
2022/09/08 10:55:38;;;;;;;2.40;1.60;;;;;;;26.25;19.48;99137.98;105133;1271;63269;-23
2022/09/08 10:58:27;;;;;;;8.30;2.20;;;;;;;26.42;19.65;99135.85;104883;1271;75417;-23
2022/09/08 11:01:16;;;;;;;2.50;1.80;;;;;;;24.40;19.99;99131.78;105007;1272;76932;-23
2022/09/08 11:03:52;;;;;;;3.20;1.90;;;;;;;24.89;20.72;99134.06;105023;1271;74450;-24
2022/09/08 11:06:55;;;;;;;3.80;1.70;;;;;;;25.45;21.18;99134.03;105114;1271;63092;-24
2022/09/08 11:09:45;;;;;;;2.90;1.70;;;;;;;25.62;20.83;99131.13;104849;1271;61878;-24
2022/09/08 11:12:12;;;;;;;6.90;3.60;;;;;;;25.30;20.53;99134.48;105073;1271;76532;-24
2022/09/08 11:15:04;;;;;;;3.30;2.00;;;;;;;24.81;21.23;99135.02;105128;1271;77050;-24
2022/09/08 11:17:52;;;;;;;2.60;1.60;;;;;;;25.46;21.07;99126.84;105103;1271;74451;-25
2022/09/08 11:20:51;;;;;;;4.90;1.80;;;;;;;25.67;21.18;99123.13;104775;1272;63489;-25
2022/09/08 11:23:41;;;;;;;3.80;1.60;;;;;;;25.80;21.29;99122.55;104910;1271;61778;-23
2022/09/08 11:26:32;;;;;;;2.70;1.60;;;;;;;25.76;20.77;99122.05;104837;1272;76557;-23
2022/09/08 11:29:12;;;;;;;3.50;1.70;;;;;;;25.86;20.56;99123.55;104965;1271;76846;-23
2022/09/08 11:31:48;;;;;;;2.80;1.20;;;;;;;25.25;19.75;99121.46;104982;1274;73587;-23
2022/09/08 11:34:41;;;;;;;2.90;1.50;;;;;;;25.24;19.75;99117.16;105049;1272;62967;-23
2022/09/08 11:37:29;;;;;;;2.70;1.40;;;;;;;24.96;19.69;99115.86;105061;1271;63040;-23
2022/09/08 11:40:02;;;;;;;5.10;1.70;;;;;;;24.93;19.62;99117.67;105097;1274;76564;-24
2022/09/08 11:42:48;;;;;;;2.50;1.30;;;;;;;24.60;19.48;99117.90;104987;1272;76412;-25
2022/09/08 11:45:38;;;;;;;5.70;1.60;;;;;;;24.65;20.63;99114.27;105043;1271;75423;-25
2022/09/08 11:48:24;;;;;;;3.40;1.30;;;;;;;24.86;21.03;99112.74;105141;1271;61720;-25
2022/09/08 11:51:00;;;;;;;51.50;4.60;;;;;;;24.74;19.97;99111.15;105147;1271;62107;-24
2022/09/08 11:54:14;;;;;;;3.50;2.20;;;;;;;24.02;20.47;99107.45;105114;1271;76372;-24
2022/09/08 11:57:05;;;;;;;5.30;1.50;;;;;;;24.55;21.34;99102.98;105114;1271;75575;-25
2022/09/08 11:59:44;;;;;;;2.30;1.60;;;;;;;24.65;21.09;99103.64;104873;1271;73301;-24
2022/09/08 12:02:27;;;;;;;4.30;1.10;;;;;;;23.42;21.05;99098.47;104835;1271;63087;-24
2022/09/08 12:05:19;;;;;;;3.30;1.30;;;;;;;23.82;21.66;99104.59;104661;1274;62974;-24
2022/09/08 12:08:51;;;;;;;6.60;1.90;;;;;;;24.04;20.81;99104.91;105124;1271;75461;-24
2022/09/08 12:11:30;;;;;;;5.00;2.10;;;;;;;23.98;20.87;99099.98;104845;1271;76660;-25